sensor_id;sensor_type;location;lat;lon;timestamp;temperature;humidity
20057;DHT22;10189;49.546;7.906;2023-11-21T00:01:37;7.40;99.90
20057;DHT22;10189;49.546;7.906;2023-11-21T00:04:03;7.40;99.90
20057;DHT22;10189;49.546;7.906;2023-11-21T00:06:29;7.50;99.90
20057;DHT22;10189;49.546;7.906;2023-11-21T00:08:56;7.40;99.90
20057;DHT22;10189;49.546;7.906;2023-11-21T00:11:22;7.40;99.90
20057;DHT22;10189;49.546;7.906;2023-11-21T00:13:48;7.40;99.90
20057;DHT22;10189;49.546;7.906;2023-11-21T00:16:14;7.50;99.90
20057;DHT22;10189;49.546;7.906;2023-11-21T00:18:39;7.50;99.90
20057;DHT22;10189;49.546;7.906;2023-11-21T00:21:05;7.50;99.90
20057;DHT22;10189;49.546;7.906;2023-11-21T00:23:31;7.50;99.90
20057;DHT22;10189;49.546;7.906;2023-11-21T00:25:57;7.50;99.90
20057;DHT22;10189;49.546;7.906;2023-11-21T00:28:23;7.40;99.90
20057;DHT22;10189;49.546;7.906;2023-11-21T00:30:50;7.50;99.90
20057;DHT22;10189;49.546;7.906;2023-11-21T00:33:16;7.50;99.90
20057;DHT22;10189;49.546;7.906;2023-11-21T00:35:42;7.50;99.90
20057;DHT22;10189;49.546;7.906;2023-11-21T00:38:08;7.60;99.90
20057;DHT22;10189;49.546;7.906;2023-11-21T00:40:36;7.50;99.90
20057;DHT22;10189;49.546;7.906;2023-11-21T00:43:03;7.50;99.90
20057;DHT22;10189;49.546;7.906;2023-11-21T00:45:29;7.60;99.90
20057;DHT22;10189;49.546;7.906;2023-11-21T00:47:55;7.60;99.90
20057;DHT22;10189;49.546;7.906;2023-11-21T00:50:21;7.50;99.90
20057;DHT22;10189;49.546;7.906;2023-11-21T00:52:47;7.50;99.90
20057;DHT22;10189;49.546;7.906;2023-11-21T00:55:13;7.50;99.90
20057;DHT22;10189;49.546;7.906;2023-11-21T00:57:39;7.50;99.90
20057;DHT22;10189;49.546;7.906;2023-11-21T01:00:06;7.50;99.90
20057;DHT22;10189;49.546;7.906;2023-11-21T01:02:39;7.50;99.90
20057;DHT22;10189;49.546;7.906;2023-11-21T01:05:05;7.50;99.90
20057;DHT22;10189;49.546;7.906;2023-11-21T01:07:33;7.50;99.90
20057;DHT22;10189;49.546;7.906;2023-11-21T01:09:59;7.60;99.90
20057;DHT22;10189;49.546;7.906;2023-11-21T01:12:24;7.60;99.90
20057;DHT22;10189;49.546;7.906;2023-11-21T01:14:51;7.50;99.90
20057;DHT22;10189;49.546;7.906;2023-11-21T01:17:17;7.50;99.90
20057;DHT22;10189;49.546;7.906;2023-11-21T01:19:43;7.50;99.90
20057;DHT22;10189;49.546;7.906;2023-11-21T01:22:09;7.60;99.90
20057;DHT22;10189;49.546;7.906;2023-11-21T01:24:37;7.50;99.90
20057;DHT22;10189;49.546;7.906;2023-11-21T01:27:04;7.50;99.90
20057;DHT22;10189;49.546;7.906;2023-11-21T01:29:30;7.50;99.90
20057;DHT22;10189;49.546;7.906;2023-11-21T01:31:55;7.50;99.90
20057;DHT22;10189;49.546;7.906;2023-11-21T01:34:23;7.50;99.90
20057;DHT22;10189;49.546;7.906;2023-11-21T01:36:49;7.50;99.90
20057;DHT22;10189;49.546;7.906;2023-11-21T01:39:15;7.50;99.90
20057;DHT22;10189;49.546;7.906;2023-11-21T01:41:42;7.50;99.90
20057;DHT22;10189;49.546;7.906;2023-11-21T01:44:09;7.50;99.90
20057;DHT22;10189;49.546;7.906;2023-11-21T01:46:36;7.50;99.90
20057;DHT22;10189;49.546;7.906;2023-11-21T01:49:03;7.50;99.90
20057;DHT22;10189;49.546;7.906;2023-11-21T01:51:29;7.50;99.90
20057;DHT22;10189;49.546;7.906;2023-11-21T01:53:56;7.50;99.90
20057;DHT22;10189;49.546;7.906;2023-11-21T01:56:23;7.50;99.90
20057;DHT22;10189;49.546;7.906;2023-11-21T01:58:49;7.50;99.90
20057;DHT22;10189;49.546;7.906;2023-11-21T02:01:15;7.50;99.90
20057;DHT22;10189;49.546;7.906;2023-11-21T02:03:40;7.50;99.90
20057;DHT22;10189;49.546;7.906;2023-11-21T02:06:07;7.40;99.90
20057;DHT22;10189;49.546;7.906;2023-11-21T02:08:34;7.40;99.90
20057;DHT22;10189;49.546;7.906;2023-11-21T02:11:00;7.40;99.90
20057;DHT22;10189;49.546;7.906;2023-11-21T02:13:25;7.40;99.90
20057;DHT22;10189;49.546;7.906;2023-11-21T02:15:51;7.40;99.90
20057;DHT22;10189;49.546;7.906;2023-11-21T02:18:19;7.50;99.90
20057;DHT22;10189;49.546;7.906;2023-11-21T02:20:46;7.50;99.90
20057;DHT22;10189;49.546;7.906;2023-11-21T02:23:12;7.60;99.90
20057;DHT22;10189;49.546;7.906;2023-11-21T02:25:38;7.60;99.90
20057;DHT22;10189;49.546;7.906;2023-11-21T02:28:04;7.60;99.90
20057;DHT22;10189;49.546;7.906;2023-11-21T02:30:32;7.60;99.90
20057;DHT22;10189;49.546;7.906;2023-11-21T02:32:58;7.50;99.90
20057;DHT22;10189;49.546;7.906;2023-11-21T02:35:25;7.50;99.90
20057;DHT22;10189;49.546;7.906;2023-11-21T02:37:54;7.60;99.90
20057;DHT22;10189;49.546;7.906;2023-11-21T02:40:20;7.60;99.90
20057;DHT22;10189;49.546;7.906;2023-11-21T02:42:47;7.60;99.90
20057;DHT22;10189;49.546;7.906;2023-11-21T02:45:14;7.60;99.90
20057;DHT22;10189;49.546;7.906;2023-11-21T02:47:42;7.60;99.90
20057;DHT22;10189;49.546;7.906;2023-11-21T02:50:09;7.50;99.90
20057;DHT22;10189;49.546;7.906;2023-11-21T02:52:35;7.50;99.90
20057;DHT22;10189;49.546;7.906;2023-11-21T02:55:02;7.60;99.90
20057;DHT22;10189;49.546;7.906;2023-11-21T02:57:29;7.60;99.90
20057;DHT22;10189;49.546;7.906;2023-11-21T02:59:55;7.60;99.90
20057;DHT22;10189;49.546;7.906;2023-11-21T03:02:22;7.60;99.90
20057;DHT22;10189;49.546;7.906;2023-11-21T03:04:48;7.50;99.90
20057;DHT22;10189;49.546;7.906;2023-11-21T03:07:15;7.60;99.90
20057;DHT22;10189;49.546;7.906;2023-11-21T03:09:41;7.50;99.90
20057;DHT22;10189;49.546;7.906;2023-11-21T03:12:08;7.50;99.90
20057;DHT22;10189;49.546;7.906;2023-11-21T03:14:35;7.60;99.90
20057;DHT22;10189;49.546;7.906;2023-11-21T03:17:01;7.60;99.90
20057;DHT22;10189;49.546;7.906;2023-11-21T03:19:27;7.70;99.90
20057;DHT22;10189;49.546;7.906;2023-11-21T03:21:53;7.70;99.90
20057;DHT22;10189;49.546;7.906;2023-11-21T03:24:19;7.70;99.90
20057;DHT22;10189;49.546;7.906;2023-11-21T03:26:46;7.70;99.90
20057;DHT22;10189;49.546;7.906;2023-11-21T03:29:17;7.60;99.90
20057;DHT22;10189;49.546;7.906;2023-11-21T03:31:43;7.60;99.90
20057;DHT22;10189;49.546;7.906;2023-11-21T03:34:22;7.70;99.90
20057;DHT22;10189;49.546;7.906;2023-11-21T03:36:54;7.70;99.90
20057;DHT22;10189;49.546;7.906;2023-11-21T03:39:21;7.70;99.90
20057;DHT22;10189;49.546;7.906;2023-11-21T03:41:48;7.70;99.90
20057;DHT22;10189;49.546;7.906;2023-11-21T03:44:15;7.80;99.90
20057;DHT22;10189;49.546;7.906;2023-11-21T03:46:41;7.70;99.90
20057;DHT22;10189;49.546;7.906;2023-11-21T03:49:10;7.60;99.90
20057;DHT22;10189;49.546;7.906;2023-11-21T03:51:36;7.50;99.90
20057;DHT22;10189;49.546;7.906;2023-11-21T03:54:03;7.50;99.90
20057;DHT22;10189;49.546;7.906;2023-11-21T03:56:29;7.50;99.90
20057;DHT22;10189;49.546;7.906;2023-11-21T03:58:55;7.50;99.90
20057;DHT22;10189;49.546;7.906;2023-11-21T04:01:22;7.40;99.90
20057;DHT22;10189;49.546;7.906;2023-11-21T04:03:51;7.40;99.90
20057;DHT22;10189;49.546;7.906;2023-11-21T04:06:17;7.40;99.90
20057;DHT22;10189;49.546;7.906;2023-11-21T04:08:44;7.40;99.90
20057;DHT22;10189;49.546;7.906;2023-11-21T04:11:11;7.40;99.90
20057;DHT22;10189;49.546;7.906;2023-11-21T04:13:38;7.30;99.90
20057;DHT22;10189;49.546;7.906;2023-11-21T04:16:06;7.40;99.90
20057;DHT22;10189;49.546;7.906;2023-11-21T04:18:36;7.40;99.90
20057;DHT22;10189;49.546;7.906;2023-11-21T04:21:04;7.30;99.90
20057;DHT22;10189;49.546;7.906;2023-11-21T04:23:30;7.30;99.90
20057;DHT22;10189;49.546;7.906;2023-11-21T04:25:57;7.30;99.90
20057;DHT22;10189;49.546;7.906;2023-11-21T04:28:24;7.20;99.90
20057;DHT22;10189;49.546;7.906;2023-11-21T04:30:51;7.20;99.90
20057;DHT22;10189;49.546;7.906;2023-11-21T04:33:17;7.20;99.90
20057;DHT22;10189;49.546;7.906;2023-11-21T04:35:43;7.10;99.90
20057;DHT22;10189;49.546;7.906;2023-11-21T04:38:09;7.10;99.90
20057;DHT22;10189;49.546;7.906;2023-11-21T04:40:34;7.20;99.90
20057;DHT22;10189;49.546;7.906;2023-11-21T04:43:00;7.20;99.90
20057;DHT22;10189;49.546;7.906;2023-11-21T04:45:27;7.10;99.90
20057;DHT22;10189;49.546;7.906;2023-11-21T04:47:52;7.10;99.90
20057;DHT22;10189;49.546;7.906;2023-11-21T04:50:18;7.10;99.90
20057;DHT22;10189;49.546;7.906;2023-11-21T04:52:44;7.10;99.90
20057;DHT22;10189;49.546;7.906;2023-11-21T04:55:10;7.10;99.90
20057;DHT22;10189;49.546;7.906;2023-11-21T04:57:36;7.10;99.90
20057;DHT22;10189;49.546;7.906;2023-11-21T05:00:03;7.00;99.90
20057;DHT22;10189;49.546;7.906;2023-11-21T05:02:32;7.00;99.90
20057;DHT22;10189;49.546;7.906;2023-11-21T05:05:00;7.10;99.90
20057;DHT22;10189;49.546;7.906;2023-11-21T05:07:26;7.10;99.90
20057;DHT22;10189;49.546;7.906;2023-11-21T05:09:55;7.10;99.90
20057;DHT22;10189;49.546;7.906;2023-11-21T05:12:22;7.10;99.90
20057;DHT22;10189;49.546;7.906;2023-11-21T05:14:51;7.20;99.90
20057;DHT22;10189;49.546;7.906;2023-11-21T05:17:17;7.10;99.90
20057;DHT22;10189;49.546;7.906;2023-11-21T05:19:43;7.10;99.90
20057;DHT22;10189;49.546;7.906;2023-11-21T05:22:11;7.20;99.90
20057;DHT22;10189;49.546;7.906;2023-11-21T05:24:37;7.20;99.90
20057;DHT22;10189;49.546;7.906;2023-11-21T05:27:06;7.20;99.90
20057;DHT22;10189;49.546;7.906;2023-11-21T05:29:35;7.20;99.90
20057;DHT22;10189;49.546;7.906;2023-11-21T05:32:00;7.00;99.90
20057;DHT22;10189;49.546;7.906;2023-11-21T05:34:26;7.00;99.90
20057;DHT22;10189;49.546;7.906;2023-11-21T05:36:52;7.00;99.90
20057;DHT22;10189;49.546;7.906;2023-11-21T05:39:19;7.10;99.90
20057;DHT22;10189;49.546;7.906;2023-11-21T05:41:45;7.10;99.90
20057;DHT22;10189;49.546;7.906;2023-11-21T05:44:11;7.10;99.90
20057;DHT22;10189;49.546;7.906;2023-11-21T05:46:37;7.10;99.90
20057;DHT22;10189;49.546;7.906;2023-11-21T05:49:03;7.00;99.90
20057;DHT22;10189;49.546;7.906;2023-11-21T05:51:29;6.90;99.90
20057;DHT22;10189;49.546;7.906;2023-11-21T05:53:55;6.90;99.90
20057;DHT22;10189;49.546;7.906;2023-11-21T05:56:21;6.90;99.90
20057;DHT22;10189;49.546;7.906;2023-11-21T05:58:46;6.90;99.90
20057;DHT22;10189;49.546;7.906;2023-11-21T06:01:12;6.90;99.90
20057;DHT22;10189;49.546;7.906;2023-11-21T06:03:38;6.90;99.90
20057;DHT22;10189;49.546;7.906;2023-11-21T06:06:04;6.80;99.90
20057;DHT22;10189;49.546;7.906;2023-11-21T06:08:31;6.90;99.90
20057;DHT22;10189;49.546;7.906;2023-11-21T06:10:56;6.80;99.90
20057;DHT22;10189;49.546;7.906;2023-11-21T06:13:22;6.80;99.90
20057;DHT22;10189;49.546;7.906;2023-11-21T06:15:50;6.80;99.90
20057;DHT22;10189;49.546;7.906;2023-11-21T06:18:16;6.90;99.90
20057;DHT22;10189;49.546;7.906;2023-11-21T06:20:45;6.90;99.90
20057;DHT22;10189;49.546;7.906;2023-11-21T06:23:12;6.90;99.90
20057;DHT22;10189;49.546;7.906;2023-11-21T06:25:38;7.00;99.90
20057;DHT22;10189;49.546;7.906;2023-11-21T06:28:04;7.00;99.90
20057;DHT22;10189;49.546;7.906;2023-11-21T06:30:30;7.00;99.90
20057;DHT22;10189;49.546;7.906;2023-11-21T06:32:56;7.00;99.90
20057;DHT22;10189;49.546;7.906;2023-11-21T06:35:22;7.00;99.90
20057;DHT22;10189;49.546;7.906;2023-11-21T06:37:48;7.10;99.90
20057;DHT22;10189;49.546;7.906;2023-11-21T06:40:14;7.10;99.90
20057;DHT22;10189;49.546;7.906;2023-11-21T06:42:47;7.00;99.90
20057;DHT22;10189;49.546;7.906;2023-11-21T06:45:13;7.00;99.90
20057;DHT22;10189;49.546;7.906;2023-11-21T06:47:40;7.10;99.90
20057;DHT22;10189;49.546;7.906;2023-11-21T06:50:06;7.10;99.90
20057;DHT22;10189;49.546;7.906;2023-11-21T06:52:32;7.00;99.90
20057;DHT22;10189;49.546;7.906;2023-11-21T06:54:58;7.00;99.90
20057;DHT22;10189;49.546;7.906;2023-11-21T06:57:25;6.90;99.90
20057;DHT22;10189;49.546;7.906;2023-11-21T06:59:51;6.90;99.90
20057;DHT22;10189;49.546;7.906;2023-11-21T07:02:16;6.90;99.90
20057;DHT22;10189;49.546;7.906;2023-11-21T07:04:45;6.80;99.90
20057;DHT22;10189;49.546;7.906;2023-11-21T07:07:12;6.80;99.90
20057;DHT22;10189;49.546;7.906;2023-11-21T07:09:38;6.80;99.90
20057;DHT22;10189;49.546;7.906;2023-11-21T07:12:05;6.80;99.90
20057;DHT22;10189;49.546;7.906;2023-11-21T07:14:35;6.80;99.90
20057;DHT22;10189;49.546;7.906;2023-11-21T07:17:02;6.80;99.90
20057;DHT22;10189;49.546;7.906;2023-11-21T07:19:28;6.90;99.90
20057;DHT22;10189;49.546;7.906;2023-11-21T07:21:55;6.90;99.90
20057;DHT22;10189;49.546;7.906;2023-11-21T07:24:21;6.90;99.90
20057;DHT22;10189;49.546;7.906;2023-11-21T07:26:48;7.00;99.90
20057;DHT22;10189;49.546;7.906;2023-11-21T07:29:14;7.00;99.90
20057;DHT22;10189;49.546;7.906;2023-11-21T07:31:40;7.10;99.90
20057;DHT22;10189;49.546;7.906;2023-11-21T07:34:06;7.00;99.90
20057;DHT22;10189;49.546;7.906;2023-11-21T07:36:33;7.00;99.90
20057;DHT22;10189;49.546;7.906;2023-11-21T07:38:59;7.00;99.90
20057;DHT22;10189;49.546;7.906;2023-11-21T07:41:27;7.10;99.90
20057;DHT22;10189;49.546;7.906;2023-11-21T07:43:55;7.20;99.90
20057;DHT22;10189;49.546;7.906;2023-11-21T07:46:21;7.30;99.90
20057;DHT22;10189;49.546;7.906;2023-11-21T07:48:47;7.40;99.90
20057;DHT22;10189;49.546;7.906;2023-11-21T07:51:13;7.40;99.90
20057;DHT22;10189;49.546;7.906;2023-11-21T07:53:39;7.50;99.90
20057;DHT22;10189;49.546;7.906;2023-11-21T07:56:07;7.50;99.90
20057;DHT22;10189;49.546;7.906;2023-11-21T07:58:34;7.50;99.90
20057;DHT22;10189;49.546;7.906;2023-11-21T08:01:01;7.50;99.90
20057;DHT22;10189;49.546;7.906;2023-11-21T08:03:27;7.60;99.90
20057;DHT22;10189;49.546;7.906;2023-11-21T08:05:56;7.60;99.90
20057;DHT22;10189;49.546;7.906;2023-11-21T08:08:23;7.60;99.90
20057;DHT22;10189;49.546;7.906;2023-11-21T08:10:49;7.60;99.90
20057;DHT22;10189;49.546;7.906;2023-11-21T08:13:24;7.70;99.90
20057;DHT22;10189;49.546;7.906;2023-11-21T08:15:57;7.70;99.90
20057;DHT22;10189;49.546;7.906;2023-11-21T08:18:27;7.60;99.90
20057;DHT22;10189;49.546;7.906;2023-11-21T08:20:57;7.70;99.90
20057;DHT22;10189;49.546;7.906;2023-11-21T08:23:23;7.70;99.90
20057;DHT22;10189;49.546;7.906;2023-11-21T08:25:53;7.70;99.90
20057;DHT22;10189;49.546;7.906;2023-11-21T08:28:19;7.80;99.90
20057;DHT22;10189;49.546;7.906;2023-11-21T08:30:47;7.80;99.90
20057;DHT22;10189;49.546;7.906;2023-11-21T08:33:13;7.80;99.90
20057;DHT22;10189;49.546;7.906;2023-11-21T08:35:39;7.70;99.90
20057;DHT22;10189;49.546;7.906;2023-11-21T08:38:05;7.70;99.90
20057;DHT22;10189;49.546;7.906;2023-11-21T08:40:31;7.60;99.90
20057;DHT22;10189;49.546;7.906;2023-11-21T08:42:57;7.70;99.90
20057;DHT22;10189;49.546;7.906;2023-11-21T08:45:25;7.60;99.90
20057;DHT22;10189;49.546;7.906;2023-11-21T08:47:54;7.60;99.90
20057;DHT22;10189;49.546;7.906;2023-11-21T08:50:20;7.50;99.90
20057;DHT22;10189;49.546;7.906;2023-11-21T08:52:47;7.50;99.90
20057;DHT22;10189;49.546;7.906;2023-11-21T08:55:13;7.50;99.90
20057;DHT22;10189;49.546;7.906;2023-11-21T08:57:39;7.60;99.90
20057;DHT22;10189;49.546;7.906;2023-11-21T09:00:07;7.60;99.90
20057;DHT22;10189;49.546;7.906;2023-11-21T09:02:40;7.70;99.90
20057;DHT22;10189;49.546;7.906;2023-11-21T09:05:08;7.80;99.90
20057;DHT22;10189;49.546;7.906;2023-11-21T09:07:38;7.80;99.90
20057;DHT22;10189;49.546;7.906;2023-11-21T09:10:05;7.80;99.90
20057;DHT22;10189;49.546;7.906;2023-11-21T09:12:33;7.80;99.90
20057;DHT22;10189;49.546;7.906;2023-11-21T09:15:02;7.80;99.90
20057;DHT22;10189;49.546;7.906;2023-11-21T09:17:30;7.80;99.90
20057;DHT22;10189;49.546;7.906;2023-11-21T09:19:56;7.80;99.90
20057;DHT22;10189;49.546;7.906;2023-11-21T09:22:22;7.70;99.90
20057;DHT22;10189;49.546;7.906;2023-11-21T09:24:53;7.80;99.90
20057;DHT22;10189;49.546;7.906;2023-11-21T09:27:19;7.80;99.90
20057;DHT22;10189;49.546;7.906;2023-11-21T09:29:45;7.70;99.90
20057;DHT22;10189;49.546;7.906;2023-11-21T09:32:13;7.80;99.90
20057;DHT22;10189;49.546;7.906;2023-11-21T09:34:41;7.70;99.90
20057;DHT22;10189;49.546;7.906;2023-11-21T09:37:08;7.80;99.90
20057;DHT22;10189;49.546;7.906;2023-11-21T09:39:34;7.90;99.90
20057;DHT22;10189;49.546;7.906;2023-11-21T09:42:13;7.80;99.90
20057;DHT22;10189;49.546;7.906;2023-11-21T09:45:37;7.80;99.90
20057;DHT22;10189;49.546;7.906;2023-11-21T09:47:46;7.90;99.90
20057;DHT22;10189;49.546;7.906;2023-11-21T09:50:17;7.80;99.90
20057;DHT22;10189;49.546;7.906;2023-11-21T09:55:53;7.90;99.90
20057;DHT22;10189;49.546;7.906;2023-11-21T09:58:20;7.90;99.90
20057;DHT22;10189;49.546;7.906;2023-11-21T10:00:48;7.80;99.90
20057;DHT22;10189;49.546;7.906;2023-11-21T10:03:15;7.70;99.90
20057;DHT22;10189;49.546;7.906;2023-11-21T10:05:45;7.80;99.90
20057;DHT22;10189;49.546;7.906;2023-11-21T10:08:12;7.90;99.90
20057;DHT22;10189;49.546;7.906;2023-11-21T10:10:46;7.90;99.90
20057;DHT22;10189;49.546;7.906;2023-11-21T10:13:14;8.00;99.90
20057;DHT22;10189;49.546;7.906;2023-11-21T10:15:43;8.10;99.90
20057;DHT22;10189;49.546;7.906;2023-11-21T10:18:15;8.10;99.90
20057;DHT22;10189;49.546;7.906;2023-11-21T10:20:41;8.10;99.90
20057;DHT22;10189;49.546;7.906;2023-11-21T10:23:08;8.00;99.90
20057;DHT22;10189;49.546;7.906;2023-11-21T10:25:37;7.90;99.90
20057;DHT22;10189;49.546;7.906;2023-11-21T10:28:04;7.80;99.90
20057;DHT22;10189;49.546;7.906;2023-11-21T10:30:37;7.70;99.90
20057;DHT22;10189;49.546;7.906;2023-11-21T10:33:05;7.60;99.90
20057;DHT22;10189;49.546;7.906;2023-11-21T10:35:45;7.50;99.90
20057;DHT22;10189;49.546;7.906;2023-11-21T10:38:21;7.50;99.90
20057;DHT22;10189;49.546;7.906;2023-11-21T10:40:49;7.50;99.90
20057;DHT22;10189;49.546;7.906;2023-11-21T10:43:16;7.40;99.90
20057;DHT22;10189;49.546;7.906;2023-11-21T10:45:44;7.40;99.90
20057;DHT22;10189;49.546;7.906;2023-11-21T10:48:12;7.50;99.90
20057;DHT22;10189;49.546;7.906;2023-11-21T10:50:47;7.60;99.90
20057;DHT22;10189;49.546;7.906;2023-11-21T10:53:13;7.70;99.90
20057;DHT22;10189;49.546;7.906;2023-11-21T10:55:39;7.70;99.90
20057;DHT22;10189;49.546;7.906;2023-11-21T10:58:05;7.70;99.90
20057;DHT22;10189;49.546;7.906;2023-11-21T11:00:32;7.70;99.90
20057;DHT22;10189;49.546;7.906;2023-11-21T11:02:59;7.90;99.90
20057;DHT22;10189;49.546;7.906;2023-11-21T11:05:29;7.80;99.90
20057;DHT22;10189;49.546;7.906;2023-11-21T11:08:08;7.90;99.90
20057;DHT22;10189;49.546;7.906;2023-11-21T11:10:37;8.00;99.90
20057;DHT22;10189;49.546;7.906;2023-11-21T11:13:04;8.00;99.90
20057;DHT22;10189;49.546;7.906;2023-11-21T11:15:32;8.10;99.90
20057;DHT22;10189;49.546;7.906;2023-11-21T11:17:59;8.20;99.90
20057;DHT22;10189;49.546;7.906;2023-11-21T11:20:35;8.30;99.90
20057;DHT22;10189;49.546;7.906;2023-11-21T11:32:06;8.40;99.90
20057;DHT22;10189;49.546;7.906;2023-11-21T11:35:06;8.50;99.90
20057;DHT22;10189;49.546;7.906;2023-11-21T11:37:42;8.70;99.90
20057;DHT22;10189;49.546;7.906;2023-11-21T11:40:11;8.90;99.90
20057;DHT22;10189;49.546;7.906;2023-11-21T11:42:37;9.00;99.90
20057;DHT22;10189;49.546;7.906;2023-11-21T11:45:17;9.20;99.90
20057;DHT22;10189;49.546;7.906;2023-11-21T11:47:47;9.40;99.90
20057;DHT22;10189;49.546;7.906;2023-11-21T11:50:13;9.60;99.10
20057;DHT22;10189;49.546;7.906;2023-11-21T11:52:54;9.70;96.00
20057;DHT22;10189;49.546;7.906;2023-11-21T11:55:29;9.70;95.70
20057;DHT22;10189;49.546;7.906;2023-11-21T11:57:56;9.70;97.00
20057;DHT22;10189;49.546;7.906;2023-11-21T12:03:01;9.60;93.40
20057;DHT22;10189;49.546;7.906;2023-11-21T12:05:30;9.50;94.10
20057;DHT22;10189;49.546;7.906;2023-11-21T12:08:10;9.50;93.10
20057;DHT22;10189;49.546;7.906;2023-11-21T12:10:38;9.40;93.60
20057;DHT22;10189;49.546;7.906;2023-11-21T12:13:10;9.40;94.30
20057;DHT22;10189;49.546;7.906;2023-11-21T12:15:39;9.40;94.60
20057;DHT22;10189;49.546;7.906;2023-11-21T12:18:07;9.40;92.20
20057;DHT22;10189;49.546;7.906;2023-11-21T12:20:33;9.50;93.20
20057;DHT22;10189;49.546;7.906;2023-11-21T12:23:04;9.50;90.60
20057;DHT22;10189;49.546;7.906;2023-11-21T12:25:32;9.50;90.50
20057;DHT22;10189;49.546;7.906;2023-11-21T12:27:59;9.50;90.70
20057;DHT22;10189;49.546;7.906;2023-11-21T12:30:27;9.60;90.30
20057;DHT22;10189;49.546;7.906;2023-11-21T12:32:57;9.60;92.20
20057;DHT22;10189;49.546;7.906;2023-11-21T12:35:34;9.50;92.10
20057;DHT22;10189;49.546;7.906;2023-11-21T12:38:02;9.50;90.70
20057;DHT22;10189;49.546;7.906;2023-11-21T12:40:29;9.40;91.50
20057;DHT22;10189;49.546;7.906;2023-11-21T12:42:57;9.50;92.50
20057;DHT22;10189;49.546;7.906;2023-11-21T12:45:28;9.60;91.80
20057;DHT22;10189;49.546;7.906;2023-11-21T12:47:58;9.80;90.30
20057;DHT22;10189;49.546;7.906;2023-11-21T12:50:30;9.90;90.80
20057;DHT22;10189;49.546;7.906;2023-11-21T12:53:11;10.20;87.50
20057;DHT22;10189;49.546;7.906;2023-11-21T12:55:38;10.20;88.50
20057;DHT22;10189;49.546;7.906;2023-11-21T12:58:09;10.20;85.00
20057;DHT22;10189;49.546;7.906;2023-11-21T13:00:42;10.30;86.10
20057;DHT22;10189;49.546;7.906;2023-11-21T13:03:11;10.20;86.70
20057;DHT22;10189;49.546;7.906;2023-11-21T13:05:41;10.10;87.00
20057;DHT22;10189;49.546;7.906;2023-11-21T13:08:11;10.10;87.70
20057;DHT22;10189;49.546;7.906;2023-11-21T13:10:40;10.10;87.60
20057;DHT22;10189;49.546;7.906;2023-11-21T13:13:11;10.10;87.20
20057;DHT22;10189;49.546;7.906;2023-11-21T13:15:51;10.00;85.80
20057;DHT22;10189;49.546;7.906;2023-11-21T13:18:22;10.10;85.90
20057;DHT22;10189;49.546;7.906;2023-11-21T13:20:50;10.10;86.80
20057;DHT22;10189;49.546;7.906;2023-11-21T13:23:16;10.20;86.20
20057;DHT22;10189;49.546;7.906;2023-11-21T13:25:43;10.30;86.80
20057;DHT22;10189;49.546;7.906;2023-11-21T13:28:11;10.30;86.30
20057;DHT22;10189;49.546;7.906;2023-11-21T13:30:38;10.20;86.70
20057;DHT22;10189;49.546;7.906;2023-11-21T13:33:06;10.10;86.40
20057;DHT22;10189;49.546;7.906;2023-11-21T13:35:39;10.10;88.00
20057;DHT22;10189;49.546;7.906;2023-11-21T13:38:08;10.00;86.30
20057;DHT22;10189;49.546;7.906;2023-11-21T13:40:36;10.20;84.50
20057;DHT22;10189;49.546;7.906;2023-11-21T13:43:12;10.20;83.70
20057;DHT22;10189;49.546;7.906;2023-11-21T13:45:43;10.20;84.30
20057;DHT22;10189;49.546;7.906;2023-11-21T13:48:10;10.30;84.30
20057;DHT22;10189;49.546;7.906;2023-11-21T13:50:43;10.30;86.60
20057;DHT22;10189;49.546;7.906;2023-11-21T13:53:27;10.30;87.10
20057;DHT22;10189;49.546;7.906;2023-11-21T13:55:54;10.30;86.80
20057;DHT22;10189;49.546;7.906;2023-11-21T13:58:21;10.00;88.00
20057;DHT22;10189;49.546;7.906;2023-11-21T14:01:05;9.90;88.40
20057;DHT22;10189;49.546;7.906;2023-11-21T14:03:38;9.90;89.40
20057;DHT22;10189;49.546;7.906;2023-11-21T14:06:15;9.70;90.30
20057;DHT22;10189;49.546;7.906;2023-11-21T14:08:48;9.50;91.30
20057;DHT22;10189;49.546;7.906;2023-11-21T14:11:14;9.30;92.00
20057;DHT22;10189;49.546;7.906;2023-11-21T14:13:43;9.10;91.20
20057;DHT22;10189;49.546;7.906;2023-11-21T14:16:13;8.90;90.80
20057;DHT22;10189;49.546;7.906;2023-11-21T14:18:39;8.80;89.70
20057;DHT22;10189;49.546;7.906;2023-11-21T14:21:18;8.60;89.80
20057;DHT22;10189;49.546;7.906;2023-11-21T14:23:44;8.60;91.20
20057;DHT22;10189;49.546;7.906;2023-11-21T14:26:12;8.60;91.20
20057;DHT22;10189;49.546;7.906;2023-11-21T14:28:42;8.50;90.90
20057;DHT22;10189;49.546;7.906;2023-11-21T14:31:08;8.50;91.90
20057;DHT22;10189;49.546;7.906;2023-11-21T14:33:40;8.50;91.00
20057;DHT22;10189;49.546;7.906;2023-11-21T14:36:07;8.40;91.80
20057;DHT22;10189;49.546;7.906;2023-11-21T14:38:36;8.30;92.50
20057;DHT22;10189;49.546;7.906;2023-11-21T14:41:05;8.20;92.30
20057;DHT22;10189;49.546;7.906;2023-11-21T14:43:34;8.30;92.40
20057;DHT22;10189;49.546;7.906;2023-11-21T14:46:02;8.30;91.70
20057;DHT22;10189;49.546;7.906;2023-11-21T14:48:35;8.30;92.00
20057;DHT22;10189;49.546;7.906;2023-11-21T14:51:09;8.30;91.80
20057;DHT22;10189;49.546;7.906;2023-11-21T14:53:59;8.30;92.70
20057;DHT22;10189;49.546;7.906;2023-11-21T14:56:35;8.30;91.10
20057;DHT22;10189;49.546;7.906;2023-11-21T14:59:03;8.30;91.80
20057;DHT22;10189;49.546;7.906;2023-11-21T15:01:38;8.30;92.40
20057;DHT22;10189;49.546;7.906;2023-11-21T15:04:19;8.20;93.00
20057;DHT22;10189;49.546;7.906;2023-11-21T15:07:05;8.30;92.00
20057;DHT22;10189;49.546;7.906;2023-11-21T15:09:32;8.20;92.80
20057;DHT22;10189;49.546;7.906;2023-11-21T15:12:02;8.30;93.20
20057;DHT22;10189;49.546;7.906;2023-11-21T15:14:41;8.20;93.90
20057;DHT22;10189;49.546;7.906;2023-11-21T15:17:12;8.10;94.20
20057;DHT22;10189;49.546;7.906;2023-11-21T15:19:45;8.10;94.60
20057;DHT22;10189;49.546;7.906;2023-11-21T15:22:11;8.00;95.20
20057;DHT22;10189;49.546;7.906;2023-11-21T15:24:40;7.90;95.90
20057;DHT22;10189;49.546;7.906;2023-11-21T15:27:09;7.90;95.90
20057;DHT22;10189;49.546;7.906;2023-11-21T15:29:35;7.80;96.70
20057;DHT22;10189;49.546;7.906;2023-11-21T15:32:01;7.80;96.90
20057;DHT22;10189;49.546;7.906;2023-11-21T15:34:27;7.80;96.60
20057;DHT22;10189;49.546;7.906;2023-11-21T15:36:55;7.80;96.30
20057;DHT22;10189;49.546;7.906;2023-11-21T15:39:21;7.80;96.50
20057;DHT22;10189;49.546;7.906;2023-11-21T15:41:51;7.70;97.40
20057;DHT22;10189;49.546;7.906;2023-11-21T15:44:17;7.70;96.90
20057;DHT22;10189;49.546;7.906;2023-11-21T15:46:43;7.70;97.60
20057;DHT22;10189;49.546;7.906;2023-11-21T15:49:10;7.60;97.80
20057;DHT22;10189;49.546;7.906;2023-11-21T15:51:43;7.60;97.70
20057;DHT22;10189;49.546;7.906;2023-11-21T15:54:23;7.60;98.00
20057;DHT22;10189;49.546;7.906;2023-11-21T15:56:52;7.50;98.10
20057;DHT22;10189;49.546;7.906;2023-11-21T15:59:23;7.50;97.70
20057;DHT22;10189;49.546;7.906;2023-11-21T16:01:54;7.60;98.20
20057;DHT22;10189;49.546;7.906;2023-11-21T16:04:21;7.60;98.40
20057;DHT22;10189;49.546;7.906;2023-11-21T16:06:52;7.60;98.70